createdAt,value
2019-05-26T00:00:15.400Z,4.97
2019-05-26T00:00:51.573Z,6.47
2019-05-26T00:01:27.995Z,5.20
2019-05-26T00:02:04.076Z,5.12
2019-05-26T00:02:40.595Z,3.90
2019-05-26T00:03:17.395Z,7.85
2019-05-26T00:03:52.926Z,9.63
2019-05-26T00:04:29.543Z,6.00
2019-05-26T00:05:05.951Z,4.90
2019-05-26T00:05:41.437Z,7.22
2019-05-26T00:06:18.029Z,5.35
2019-05-26T00:06:54.700Z,6.05
2019-05-26T00:07:31.264Z,6.00
2019-05-26T00:08:07.448Z,5.50
2019-05-26T00:08:44.122Z,4.55
2019-05-26T00:09:21.029Z,3.70
2019-05-26T00:09:57.639Z,4.70
2019-05-26T00:10:34.284Z,4.85
2019-05-26T00:11:10.360Z,4.75
2019-05-26T00:11:47.250Z,6.00
2019-05-26T00:12:24.121Z,6.85
2019-05-26T00:13:00.588Z,8.25
2019-05-26T00:13:37.757Z,4.83
2019-05-26T00:14:14.207Z,6.25
2019-05-26T00:14:49.729Z,6.62
2019-05-26T00:15:25.979Z,5.10
2019-05-26T00:16:02.680Z,7.08
2019-05-26T00:16:38.739Z,5.55
2019-05-26T00:17:15.495Z,4.53
2019-05-26T00:17:51.694Z,5.65
2019-05-26T00:18:28.091Z,5.10
2019-05-26T00:19:04.412Z,5.58
2019-05-26T00:19:41.044Z,4.60
2019-05-26T00:20:16.551Z,4.12
2019-05-26T00:20:52.745Z,5.30
2019-05-26T00:21:29.139Z,5.00
2019-05-26T00:22:05.186Z,5.37
2019-05-26T00:22:41.245Z,7.55
2019-05-26T00:23:18.333Z,6.30
2019-05-26T00:23:56.136Z,4.70
2019-05-26T00:24:32.202Z,7.58
2019-05-26T00:25:09.251Z,4.08
2019-05-26T00:25:45.682Z,4.72
2019-05-26T00:26:22.161Z,4.75
2019-05-26T00:26:58.875Z,5.67
2019-05-26T00:27:35.381Z,4.95
2019-05-26T00:28:12.011Z,5.40
2019-05-26T00:28:49.680Z,6.15
2019-05-26T00:29:26.058Z,6.15
2019-05-26T00:30:02.130Z,4.62
2019-05-26T00:30:39.181Z,4.78
2019-05-26T00:31:14.723Z,6.93
2019-05-26T00:31:50.983Z,5.40
2019-05-26T00:32:27.450Z,4.85
2019-05-26T00:33:02.937Z,5.58
2019-05-26T00:33:39.643Z,5.15
2019-05-26T00:34:16.005Z,5.60
2019-05-26T00:34:52.137Z,6.97
2019-05-26T00:35:28.473Z,7.45
2019-05-26T00:36:04.522Z,5.30
2019-05-26T00:36:41.321Z,6.10
2019-05-26T00:37:18.880Z,5.80
2019-05-26T00:37:56.163Z,6.65
2019-05-26T00:38:32.995Z,5.37
2019-05-26T00:39:09.379Z,7.08
2019-05-26T00:39:46.537Z,4.75
2019-05-26T00:40:22.637Z,9.03
2019-05-26T00:40:59.296Z,7.12
2019-05-26T00:41:35.339Z,5.45
2019-05-26T00:42:11.180Z,5.00
2019-05-26T00:42:48.178Z,7.97
2019-05-26T00:43:24.295Z,6.35
2019-05-26T00:44:00.345Z,5.75
2019-05-26T00:44:37.396Z,6.53
2019-05-26T00:45:13.915Z,5.78
2019-05-26T00:45:50.431Z,5.58
2019-05-26T00:46:27.525Z,4.83
2019-05-26T00:47:03.561Z,5.92
2019-05-26T00:47:40.305Z,5.17
2019-05-26T00:48:16.895Z,5.78
2019-05-26T00:48:53.842Z,8.28
2019-05-26T00:49:29.459Z,6.10
2019-05-26T00:50:07.682Z,5.87
2019-05-26T00:50:44.346Z,5.12
2019-05-26T00:51:20.476Z,6.17
2019-05-26T00:51:57.155Z,4.83
2019-05-26T00:52:33.815Z,6.37
2019-05-26T00:53:09.646Z,6.87
2019-05-26T00:53:47.329Z,5.25
2019-05-26T00:54:24.210Z,6.30
2019-05-26T00:54:59.994Z,6.53
2019-05-26T00:55:36.095Z,6.53
2019-05-26T00:56:12.723Z,7.55
2019-05-26T00:56:48.907Z,4.85
2019-05-26T00:57:25.118Z,7.12
2019-05-26T00:58:02.135Z,5.90
2019-05-26T00:58:38.885Z,6.10
2019-05-26T00:59:15.724Z,4.50
2019-05-26T00:59:52.410Z,5.03
2019-05-26T01:00:42.121Z,5.55
2019-05-26T01:01:18.364Z,6.05
2019-05-26T01:01:55.439Z,4.55
2019-05-26T01:02:31.468Z,5.62
2019-05-26T01:03:07.537Z,4.62
2019-05-26T01:03:44.609Z,5.40
2019-05-26T01:04:20.120Z,5.17
2019-05-26T01:04:56.843Z,5.58
2019-05-26T01:05:33.871Z,6.15
2019-05-26T01:06:10.348Z,5.67
2019-05-26T01:06:46.989Z,7.35
2019-05-26T01:07:24.071Z,7.85
2019-05-26T01:08:06.466Z,5.95
2019-05-26T01:08:38.087Z,6.65
2019-05-26T01:09:14.171Z,6.37
2019-05-26T01:09:50.799Z,5.17
2019-05-26T01:10:27.883Z,4.22
2019-05-26T01:11:03.934Z,7.03
2019-05-26T01:11:39.393Z,5.13
2019-05-26T01:12:16.213Z,4.60
2019-05-26T01:12:53.340Z,5.45
2019-05-26T01:13:29.503Z,7.08
2019-05-26T01:14:07.118Z,6.85
2019-05-26T01:14:43.802Z,7.62
2019-05-26T01:15:20.236Z,4.28
2019-05-26T01:15:57.272Z,6.97
2019-05-26T01:16:33.575Z,6.92
2019-05-26T01:17:09.607Z,5.33
2019-05-26T01:17:46.058Z,8.25
2019-05-26T01:18:22.719Z,5.22
2019-05-26T01:18:58.208Z,5.92
2019-05-26T01:19:34.644Z,4.87
2019-05-26T01:20:10.979Z,7.30
2019-05-26T01:20:47.102Z,6.53
2019-05-26T01:21:23.826Z,6.75
2019-05-26T01:22:00.559Z,4.87
2019-05-26T01:22:36.417Z,6.83
2019-05-26T01:23:13.049Z,6.95
2019-05-26T01:23:49.679Z,6.92
2019-05-26T01:24:25.168Z,8.83
2019-05-26T01:25:02.156Z,6.65
2019-05-26T01:25:39.426Z,6.87
2019-05-26T01:26:16.205Z,7.47
2019-05-26T01:26:53.059Z,6.05
2019-05-26T01:27:29.099Z,5.62
2019-05-26T01:28:05.542Z,6.20
2019-05-26T01:28:42.144Z,5.45
2019-05-26T01:29:18.724Z,5.17
2019-05-26T01:29:54.733Z,7.08
2019-05-26T01:30:40.479Z,6.83
2019-05-26T01:31:17.456Z,7.20
2019-05-26T01:31:53.401Z,5.60
2019-05-26T01:32:30.063Z,6.05
2019-05-26T01:33:06.932Z,4.80
2019-05-26T01:33:42.512Z,5.35
2019-05-26T01:34:18.737Z,5.80
2019-05-26T01:34:54.887Z,6.62
2019-05-26T01:35:31.360Z,9.20
2019-05-26T01:36:08.474Z,7.83
2019-05-26T01:36:44.640Z,5.73
2019-05-26T01:37:20.410Z,6.85
2019-05-26T01:37:56.676Z,4.87
2019-05-26T01:38:34.089Z,5.37
2019-05-26T01:39:09.562Z,9.60
2019-05-26T01:39:45.666Z,9.40
2019-05-26T01:40:24.695Z,5.85
2019-05-26T01:41:00.722Z,7.47
2019-05-26T01:41:37.684Z,6.00
2019-05-26T01:42:13.735Z,5.17
2019-05-26T01:42:49.560Z,9.28
2019-05-26T01:43:25.729Z,6.87
2019-05-26T01:44:01.799Z,8.70
2019-05-26T01:44:37.251Z,6.57
2019-05-26T01:45:14.073Z,6.95
2019-05-26T01:45:50.744Z,6.37
2019-05-26T01:46:26.882Z,5.72
2019-05-26T01:47:02.954Z,7.03
2019-05-26T01:47:39.592Z,6.25
2019-05-26T01:48:15.120Z,5.77
2019-05-26T01:48:51.773Z,7.40
2019-05-26T01:49:28.433Z,6.62
2019-05-26T01:50:04.226Z,6.35
2019-05-26T01:50:40.875Z,6.47
2019-05-26T01:51:17.561Z,6.83
2019-05-26T01:51:54.200Z,9.60
2019-05-26T01:52:30.380Z,5.60
2019-05-26T01:53:07.249Z,6.00
2019-05-26T01:53:43.056Z,6.80
2019-05-26T01:54:19.784Z,7.15
2019-05-26T01:54:56.602Z,8.43
2019-05-26T01:55:32.066Z,6.35
2019-05-26T01:56:08.226Z,9.40
2019-05-26T01:56:44.743Z,6.13
2019-05-26T01:57:20.685Z,5.22
2019-05-26T01:57:57.356Z,7.50
2019-05-26T01:58:34.396Z,7.75
2019-05-26T01:59:10.430Z,5.83
2019-05-26T01:59:46.488Z,6.28
2019-05-26T02:00:23.650Z,7.05
2019-05-26T02:00:59.908Z,7.70
2019-05-26T02:01:36.270Z,5.97
2019-05-26T02:02:12.339Z,7.45
2019-05-26T02:02:48.336Z,6.57
2019-05-26T02:03:25.658Z,5.47
2019-05-26T02:04:01.993Z,6.53
2019-05-26T02:04:38.146Z,7.63
2019-05-26T02:05:14.751Z,6.47
2019-05-26T02:05:50.876Z,7.42
2019-05-26T02:06:26.795Z,5.97
2019-05-26T02:07:03.417Z,8.25
2019-05-26T02:07:40.088Z,7.65
2019-05-26T02:08:16.202Z,6.45
2019-05-26T02:08:53.103Z,9.53
2019-05-26T02:09:29.738Z,7.50
2019-05-26T02:10:06.135Z,6.23
2019-05-26T02:10:42.818Z,7.40
2019-05-26T02:11:19.703Z,8.60
2019-05-26T02:11:55.237Z,7.25
2019-05-26T02:12:31.615Z,7.57
2019-05-26T02:13:07.671Z,5.83
2019-05-26T02:13:43.130Z,9.28
2019-05-26T02:14:19.907Z,9.38
2019-05-26T02:14:56.120Z,6.20
2019-05-26T02:15:32.759Z,5.83
2019-05-26T02:16:09.131Z,8.15
2019-05-26T02:16:46.121Z,10.13
2019-05-26T02:17:21.699Z,5.90
2019-05-26T02:17:58.699Z,5.97
2019-05-26T02:18:34.753Z,5.17
2019-05-26T02:19:10.790Z,6.25
2019-05-26T02:19:47.620Z,7.97
2019-05-26T02:20:25.216Z,5.97
2019-05-26T02:21:01.589Z,7.27
2019-05-26T02:21:37.648Z,9.07
2019-05-26T02:22:13.666Z,8.30
2019-05-26T02:22:49.176Z,6.20
2019-05-26T02:23:26.097Z,8.05
2019-05-26T02:24:03.125Z,7.65
2019-05-26T02:24:39.175Z,5.85
2019-05-26T02:25:15.889Z,6.63
2019-05-26T02:25:52.848Z,6.87
2019-05-26T02:26:28.330Z,8.70
2019-05-26T02:27:04.954Z,5.87
2019-05-26T02:27:40.982Z,7.20
2019-05-26T02:28:16.894Z,6.20
2019-05-26T02:28:52.963Z,6.93
2019-05-26T02:29:29.125Z,10.63
2019-05-26T02:30:05.085Z,6.60
2019-05-26T02:30:41.715Z,6.10
2019-05-26T02:31:17.868Z,5.97
2019-05-26T02:31:53.392Z,5.67
2019-05-26T02:32:29.425Z,8.20
2019-05-26T02:33:05.654Z,6.17
2019-05-26T02:33:41.102Z,6.53
2019-05-26T02:34:17.692Z,8.37
2019-05-26T02:34:53.872Z,5.70
2019-05-26T02:35:29.631Z,7.17
2019-05-26T02:36:06.285Z,7.65
2019-05-26T02:36:42.665Z,7.30
2019-05-26T02:37:18.116Z,6.27
2019-05-26T02:37:54.341Z,6.55
2019-05-26T02:38:31.299Z,6.15
2019-05-26T02:39:08.880Z,5.43
2019-05-26T02:39:45.037Z,7.70
2019-05-26T02:40:23.332Z,9.63
2019-05-26T02:40:59.584Z,5.90
2019-05-26T02:41:35.874Z,6.57
2019-05-26T02:42:11.961Z,5.80
2019-05-26T02:42:47.454Z,7.78
2019-05-26T02:43:23.876Z,7.13
2019-05-26T02:43:59.913Z,5.97
2019-05-26T02:44:35.809Z,8.03
2019-05-26T02:45:15.259Z,7.33
2019-05-26T02:45:51.347Z,6.03
2019-05-26T02:46:27.315Z,5.70
2019-05-26T02:47:03.375Z,6.63
2019-05-26T02:47:39.417Z,7.13
2019-05-26T02:48:14.958Z,7.80
2019-05-26T02:48:51.740Z,6.57
2019-05-26T02:49:27.819Z,5.90
2019-05-26T02:50:03.699Z,7.97
2019-05-26T02:50:39.772Z,7.90
2019-05-26T02:51:15.887Z,6.87
2019-05-26T02:51:51.799Z,6.07
2019-05-26T02:52:28.195Z,6.27
2019-05-26T02:53:04.648Z,6.37
2019-05-26T02:53:40.108Z,6.13
2019-05-26T02:54:16.185Z,7.20
2019-05-26T02:54:52.277Z,9.17
2019-05-26T02:55:28.070Z,8.10
2019-05-26T02:56:04.461Z,6.07
2019-05-26T02:56:40.735Z,10.20
2019-05-26T02:57:16.250Z,8.30
2019-05-26T02:57:52.435Z,8.93
2019-05-26T02:58:28.498Z,6.13
2019-05-26T02:59:04.549Z,6.37
2019-05-26T02:59:40.620Z,6.20
2019-05-26T03:00:18.674Z,7.07
2019-05-26T03:00:54.177Z,6.87
2019-05-26T03:01:31.474Z,6.83
2019-05-26T03:02:07.597Z,7.07
2019-05-26T03:02:43.605Z,6.53
2019-05-26T03:03:19.778Z,8.60
2019-05-26T03:03:56.048Z,6.80
2019-05-26T03:04:31.518Z,7.20
2019-05-26T03:05:09.145Z,10.00
2019-05-26T03:05:46.265Z,8.47
2019-05-26T03:06:24.302Z,6.93
2019-05-26T03:07:02.247Z,5.57
2019-05-26T03:07:42.059Z,7.80
2019-05-26T03:08:18.042Z,6.70
2019-05-26T03:08:56.397Z,6.87
2019-05-26T03:09:33.862Z,8.83
2019-05-26T03:10:09.817Z,6.97
2019-05-26T03:10:46.495Z,6.47
2019-05-26T03:11:24.712Z,8.17
2019-05-26T03:12:02.530Z,6.10
2019-05-26T03:12:44.066Z,8.53
2019-05-26T03:13:20.302Z,7.20
2019-05-26T03:13:57.766Z,6.87
2019-05-26T03:14:35.838Z,5.70
2019-05-26T03:15:13.070Z,7.83
2019-05-26T03:15:49.052Z,7.00
2019-05-26T03:16:25.173Z,6.07
2019-05-26T03:17:03.201Z,12.93
2019-05-26T03:17:41.280Z,6.63
2019-05-26T03:18:18.961Z,5.78
2019-05-26T03:18:56.957Z,6.07
2019-05-26T03:19:34.761Z,9.97
2019-05-26T03:20:11.650Z,5.80
2019-05-26T03:20:47.836Z,6.90
2019-05-26T03:21:25.243Z,6.00
2019-05-26T03:22:04.023Z,9.30
2019-05-26T03:22:45.229Z,7.37
2019-05-26T03:23:20.074Z,8.23
2019-05-26T03:23:56.698Z,5.97
2019-05-26T03:24:34.649Z,6.47
2019-05-26T03:25:10.688Z,6.07
2019-05-26T03:25:47.538Z,10.58
2019-05-26T03:26:25.145Z,5.63
2019-05-26T03:27:01.003Z,6.73
2019-05-26T03:27:37.099Z,8.27
2019-05-26T03:28:13.152Z,8.23
2019-05-26T03:28:49.016Z,5.53
2019-05-26T03:29:25.249Z,5.60
2019-05-26T03:30:01.326Z,5.53
2019-05-26T03:30:37.096Z,6.33
2019-05-26T03:31:13.209Z,6.40
2019-05-26T03:31:49.457Z,7.33
2019-05-26T03:32:25.705Z,6.30
2019-05-26T03:33:01.940Z,9.10
2019-05-26T03:33:38.617Z,6.70
2019-05-26T03:34:15.197Z,7.03
2019-05-26T03:34:51.331Z,6.62
2019-05-26T03:35:27.476Z,7.77
2019-05-26T03:36:03.062Z,6.00
2019-05-26T03:36:39.263Z,6.53
2019-05-26T03:37:15.976Z,7.65
2019-05-26T03:37:51.549Z,5.70
2019-05-26T03:38:27.604Z,6.40
2019-05-26T03:39:03.663Z,7.03
2019-05-26T03:39:45.277Z,7.17
2019-05-26T03:40:17.382Z,6.03
2019-05-26T03:40:54.074Z,7.17
2019-05-26T03:41:29.540Z,5.73
2019-05-26T03:42:05.679Z,7.20
2019-05-26T03:42:41.789Z,8.77
2019-05-26T03:43:17.367Z,5.13
2019-05-26T03:43:54.293Z,7.40
2019-05-26T03:44:30.997Z,6.45
2019-05-26T03:45:07.451Z,7.37
2019-05-26T03:46:23.225Z,8.70
2019-05-26T03:46:58.783Z,8.17
2019-05-26T03:47:35.548Z,7.78
2019-05-26T03:48:11.589Z,5.67
2019-05-26T03:48:47.335Z,9.27
2019-05-26T03:49:23.477Z,6.33
2019-05-26T03:49:59.654Z,7.03
2019-05-26T03:50:35.120Z,6.60
2019-05-26T03:51:11.260Z,6.67
2019-05-26T03:51:47.892Z,7.70
2019-05-26T03:52:23.527Z,9.20
2019-05-26T03:53:00.347Z,6.07
2019-05-26T03:53:36.402Z,7.30
2019-05-26T03:54:12.143Z,6.50
2019-05-26T03:54:49.136Z,6.77
2019-05-26T03:55:26.276Z,7.35
2019-05-26T03:56:01.773Z,6.90
2019-05-26T03:56:38.058Z,7.93
2019-05-26T03:57:14.189Z,6.30
2019-05-26T03:57:50.020Z,6.70
2019-05-26T03:58:26.454Z,5.47
2019-05-26T03:59:02.540Z,7.67
2019-05-26T03:59:38.002Z,15.10
2019-05-26T04:00:14.953Z,6.13
2019-05-26T04:00:51.150Z,7.20
2019-05-26T04:01:27.769Z,6.62
2019-05-26T04:02:03.854Z,6.70
2019-05-26T04:02:39.964Z,8.37
2019-05-26T04:03:15.470Z,4.87
2019-05-26T04:03:51.649Z,8.90
2019-05-26T04:04:27.849Z,7.10
2019-05-26T04:05:03.588Z,6.73
2019-05-26T04:05:39.638Z,6.83
2019-05-26T04:06:15.733Z,9.07
2019-05-26T04:06:51.913Z,7.70
2019-05-26T04:07:28.045Z,7.03
2019-05-26T04:08:05.647Z,6.93
2019-05-26T04:08:41.953Z,6.47
2019-05-26T04:09:18.585Z,6.80
2019-05-26T04:10:04.431Z,7.57
2019-05-26T04:10:31.902Z,5.93
2019-05-26T04:11:08.176Z,6.43
2019-05-26T04:11:44.588Z,6.95
2019-05-26T04:12:20.152Z,6.97
2019-05-26T04:12:56.246Z,6.53
2019-05-26T04:13:32.303Z,8.07
2019-05-26T04:14:07.837Z,8.93
2019-05-26T04:14:44.340Z,6.60
2019-05-26T04:15:20.543Z,6.00
2019-05-26T04:15:56.429Z,6.37
2019-05-26T04:16:32.791Z,5.83
2019-05-26T04:17:08.896Z,9.07
2019-05-26T04:17:44.780Z,6.47
2019-05-26T04:18:21.013Z,9.30
2019-05-26T04:18:57.549Z,6.63
2019-05-26T04:19:33.002Z,6.33
2019-05-26T04:20:09.370Z,8.33
2019-05-26T04:20:46.156Z,7.83
2019-05-26T04:21:23.730Z,6.05
2019-05-26T04:21:59.763Z,5.80
2019-05-26T04:22:36.131Z,10.05
2019-05-26T04:23:12.025Z,5.40
2019-05-26T04:23:48.446Z,6.47
2019-05-26T04:24:24.659Z,8.83
2019-05-26T04:25:00.093Z,8.73
2019-05-26T04:25:36.110Z,8.87
2019-05-26T04:26:12.164Z,6.90
2019-05-26T04:26:47.970Z,8.43
2019-05-26T04:27:25.485Z,8.50
2019-05-26T04:28:01.924Z,6.33
2019-05-26T04:28:37.363Z,7.97
2019-05-26T04:29:13.422Z,6.63
2019-05-26T04:29:49.584Z,8.15
2019-05-26T04:30:25.688Z,6.33
2019-05-26T04:31:01.727Z,7.80
2019-05-26T04:31:37.762Z,5.87
2019-05-26T04:32:13.231Z,5.67
2019-05-26T04:32:49.463Z,8.87
2019-05-26T04:33:25.552Z,9.03
2019-05-26T04:34:00.998Z,7.03
2019-05-26T04:34:37.045Z,6.83
2019-05-26T04:35:13.110Z,6.28
2019-05-26T04:35:48.757Z,8.60
2019-05-26T04:36:24.835Z,6.40
2019-05-26T04:37:00.878Z,11.33
2019-05-26T04:37:36.372Z,6.70
2019-05-26T04:38:13.134Z,7.50
2019-05-26T04:38:49.276Z,7.10
2019-05-26T04:39:24.767Z,7.67
2019-05-26T04:40:00.787Z,8.27
2019-05-26T04:40:37.753Z,6.35
2019-05-26T04:41:13.207Z,9.60
2019-05-26T04:41:49.691Z,11.23
2019-05-26T04:42:26.051Z,8.10
2019-05-26T04:43:01.893Z,7.53
2019-05-26T04:43:38.273Z,10.60
2019-05-26T04:44:14.655Z,7.70
2019-05-26T04:44:50.537Z,7.17
2019-05-26T04:45:27.516Z,7.20
2019-05-26T04:46:03.566Z,8.13
2019-05-26T04:46:39.010Z,9.73
2019-05-26T04:47:15.078Z,10.03
2019-05-26T04:47:51.704Z,6.87
2019-05-26T04:48:27.429Z,8.33
2019-05-26T04:49:03.894Z,9.53
2019-05-26T04:49:40.866Z,8.75
2019-05-26T04:50:16.556Z,8.13
2019-05-26T04:50:52.953Z,8.83
2019-05-26T04:51:29.025Z,7.83
2019-05-26T04:52:04.911Z,10.28
2019-05-26T04:52:41.960Z,7.85
2019-05-26T04:53:19.806Z,11.85
2019-05-26T04:53:55.354Z,7.20
2019-05-26T04:54:31.754Z,9.70
2019-05-26T04:55:08.387Z,12.95
2019-05-26T04:55:43.849Z,7.07
2019-05-26T04:56:20.283Z,6.78
2019-05-26T04:56:56.350Z,7.58
2019-05-26T04:57:31.815Z,6.53
2019-05-26T04:58:07.949Z,13.22
2019-05-26T04:58:43.985Z,12.88
2019-05-26T04:59:19.722Z,10.20
2019-05-26T04:59:56.832Z,9.53
2019-05-26T05:00:32.868Z,7.30
2019-05-26T05:01:09.259Z,9.20
2019-05-26T05:01:45.666Z,8.57
2019-05-26T05:02:22.448Z,8.05
2019-05-26T05:02:58.860Z,8.70
2019-05-26T05:03:35.464Z,11.88
2019-05-26T05:04:13.018Z,12.35
2019-05-26T05:04:49.073Z,13.55
2019-05-26T05:05:25.739Z,13.13
2019-05-26T05:06:03.083Z,14.38
2019-05-26T05:06:38.551Z,11.93
2019-05-26T05:07:15.113Z,12.70
2019-05-26T05:07:52.807Z,10.82
2019-05-26T05:08:29.009Z,15.15
2019-05-26T05:09:06.757Z,14.85
2019-05-26T05:09:43.392Z,13.43
2019-05-26T05:10:19.607Z,11.63
2019-05-26T05:10:55.677Z,10.37
2019-05-26T05:11:32.747Z,10.53
2019-05-26T05:12:08.841Z,11.43
2019-05-26T05:12:45.842Z,15.43
2019-05-26T05:13:25.080Z,8.30
2019-05-26T05:14:00.149Z,10.40
2019-05-26T05:14:36.259Z,12.33
2019-05-26T05:15:12.320Z,8.28
2019-05-26T05:15:48.844Z,7.70
2019-05-26T05:16:25.565Z,9.93
2019-05-26T05:17:01.618Z,8.65
2019-05-26T05:17:37.654Z,7.75
2019-05-26T05:18:14.319Z,9.83
2019-05-26T05:18:51.368Z,8.48
2019-05-26T05:19:27.809Z,9.23
2019-05-26T05:20:05.638Z,9.53
2019-05-26T05:20:42.378Z,8.50
2019-05-26T05:21:18.352Z,9.10
2019-05-26T05:21:55.118Z,11.85
2019-05-26T05:22:31.754Z,9.60
2019-05-26T05:23:07.216Z,7.45
2019-05-26T05:23:43.289Z,7.67
2019-05-26T05:24:19.965Z,9.00
2019-05-26T05:24:56.031Z,8.13
2019-05-26T05:25:32.995Z,15.05
2019-05-26T05:26:09.618Z,7.65
2019-05-26T05:26:45.436Z,7.78
2019-05-26T05:27:22.453Z,7.37
2019-05-26T05:27:59.231Z,9.88
2019-05-26T05:28:35.710Z,10.15
2019-05-26T05:29:12.346Z,9.13
2019-05-26T05:29:48.821Z,8.95
2019-05-26T05:30:25.182Z,10.15
2019-05-26T05:31:01.789Z,8.45
2019-05-26T05:31:37.830Z,7.78
2019-05-26T05:32:13.871Z,9.20
2019-05-26T05:32:50.611Z,8.15
2019-05-26T05:33:27.372Z,7.53
2019-05-26T05:34:02.878Z,9.08
2019-05-26T05:34:39.555Z,9.85
2019-05-26T05:35:16.462Z,8.10
2019-05-26T05:35:52.992Z,9.48
2019-05-26T05:36:29.124Z,8.00
2019-05-26T05:37:05.764Z,8.28
2019-05-26T05:37:41.807Z,9.65
2019-05-26T05:38:18.816Z,8.75
2019-05-26T05:38:55.399Z,10.38
2019-05-26T05:39:31.421Z,8.78
2019-05-26T05:40:08.759Z,8.43
2019-05-26T05:40:58.256Z,9.45
2019-05-26T05:41:23.311Z,8.08
2019-05-26T05:41:59.380Z,9.88
2019-05-26T05:42:35.512Z,9.35
2019-05-26T05:43:11.330Z,11.03
2019-05-26T05:43:48.394Z,8.60
2019-05-26T05:44:24.611Z,11.38
2019-05-26T05:45:00.369Z,9.83
2019-05-26T05:45:37.741Z,9.90
2019-05-26T05:46:14.778Z,9.58
2019-05-26T05:46:51.269Z,11.30
2019-05-26T05:47:28.680Z,10.38
2019-05-26T05:48:05.975Z,10.32
2019-05-26T05:48:41.581Z,10.48
2019-05-26T05:49:19.503Z,13.38
2019-05-26T05:49:55.793Z,11.25
2019-05-26T05:50:32.207Z,11.25
2019-05-26T05:51:08.529Z,11.25
2019-05-26T05:51:44.554Z,10.58
2019-05-26T05:52:20.917Z,11.53
2019-05-26T05:52:57.554Z,12.95
2019-05-26T05:53:34.668Z,11.08
2019-05-26T05:54:10.287Z,13.70
2019-05-26T05:54:46.782Z,11.18
2019-05-26T05:55:23.495Z,12.68
2019-05-26T05:55:59.660Z,11.45
2019-05-26T05:56:36.700Z,11.33
2019-05-26T05:57:13.363Z,11.53
2019-05-26T05:57:49.020Z,12.18
2019-05-26T05:58:25.805Z,12.33
2019-05-26T05:59:02.598Z,14.50
2019-05-26T05:59:38.085Z,12.73
2019-05-26T06:00:15.127Z,16.50
2019-05-26T06:00:52.504Z,11.78
2019-05-26T06:01:29.035Z,13.08
2019-05-26T06:02:05.402Z,13.53
2019-05-26T06:02:42.072Z,11.08
2019-05-26T06:03:18.970Z,12.88
2019-05-26T06:03:55.595Z,11.85
2019-05-26T06:04:32.962Z,11.43
2019-05-26T06:05:09.516Z,10.95
2019-05-26T06:05:47.108Z,15.65
2019-05-26T06:06:24.145Z,11.65
2019-05-26T06:06:59.659Z,11.93
2019-05-26T06:07:35.805Z,11.78
2019-05-26T06:08:12.862Z,11.38
2019-05-26T06:08:49.312Z,10.88
2019-05-26T06:09:26.362Z,14.83
2019-05-26T06:10:03.054Z,13.45
2019-05-26T06:10:39.636Z,11.55
2019-05-26T06:11:17.267Z,15.50
2019-05-26T06:11:56.892Z,10.58
2019-05-26T06:12:30.764Z,12.60
2019-05-26T06:13:06.825Z,10.70
2019-05-26T06:13:42.947Z,10.98
2019-05-26T06:14:18.593Z,10.98
2019-05-26T06:14:55.463Z,10.78
2019-05-26T06:15:32.168Z,14.00
2019-05-26T06:16:08.275Z,11.53
2019-05-26T06:16:44.331Z,10.03
2019-05-26T06:17:21.030Z,10.65
2019-05-26T06:17:58.048Z,12.60
2019-05-26T06:18:35.070Z,11.35
2019-05-26T06:19:11.726Z,11.95
2019-05-26T06:19:47.554Z,13.13
2019-05-26T06:20:24.241Z,10.80
2019-05-26T06:21:00.875Z,10.63
2019-05-26T06:21:36.354Z,11.28
2019-05-26T06:22:12.522Z,10.10
2019-05-26T06:22:49.076Z,10.58
2019-05-26T06:23:24.567Z,11.90
2019-05-26T06:24:02.782Z,11.40
2019-05-26T06:24:39.241Z,10.87
2019-05-26T06:25:15.927Z,9.23
2019-05-26T06:25:52.412Z,10.48
2019-05-26T06:26:29.070Z,9.58
2019-05-26T06:27:04.645Z,11.00
2019-05-26T06:27:41.099Z,9.98
2019-05-26T06:28:17.844Z,9.78
2019-05-26T06:28:53.349Z,10.93
2019-05-26T06:29:29.465Z,9.73
2019-05-26T06:30:06.559Z,9.98
2019-05-26T06:30:42.380Z,10.40
2019-05-26T06:31:19.192Z,9.53
2019-05-26T06:31:56.348Z,12.40
2019-05-26T06:32:33.551Z,9.98
2019-05-26T06:33:10.216Z,9.85
2019-05-26T06:33:46.269Z,10.03
2019-05-26T06:34:21.749Z,9.75
2019-05-26T06:34:57.916Z,9.93
2019-05-26T06:35:33.991Z,10.38
2019-05-26T06:36:09.785Z,9.78
2019-05-26T06:36:46.748Z,10.40
2019-05-26T06:37:22.871Z,10.32
2019-05-26T06:37:58.351Z,10.60
2019-05-26T06:38:34.413Z,10.93
2019-05-26T06:39:11.070Z,11.22
2019-05-26T06:39:47.102Z,10.28
2019-05-26T06:40:23.805Z,11.73
2019-05-26T06:40:59.925Z,11.30
2019-05-26T06:41:35.391Z,10.43
2019-05-26T06:42:13.178Z,13.45
2019-05-26T06:42:51.273Z,11.22
2019-05-26T06:43:27.489Z,9.75
2019-05-26T06:44:03.567Z,12.58
2019-05-26T06:44:53.114Z,12.63
2019-05-26T06:45:18.323Z,10.53
2019-05-26T06:45:55.705Z,12.80
2019-05-26T06:46:32.336Z,10.43
2019-05-26T06:47:08.383Z,10.75
2019-05-26T06:47:45.392Z,11.30
2019-05-26T06:48:21.902Z,15.25
2019-05-26T06:48:58.255Z,11.93
2019-05-26T06:49:34.917Z,13.80
2019-05-26T06:50:11.631Z,11.38
2019-05-26T06:50:48.225Z,11.45
2019-05-26T06:51:24.749Z,13.28
2019-05-26T06:52:00.951Z,10.25
2019-05-26T06:52:36.625Z,10.23
2019-05-26T06:53:13.072Z,10.60
2019-05-26T06:53:50.167Z,10.50
2019-05-26T06:54:26.367Z,10.65
2019-05-26T06:55:02.742Z,11.60
2019-05-26T06:55:39.485Z,11.20
2019-05-26T06:56:14.989Z,11.93
2019-05-26T06:56:51.861Z,11.20
2019-05-26T06:57:28.383Z,12.37
2019-05-26T06:58:04.500Z,11.15
2019-05-26T06:58:40.580Z,11.90
2019-05-26T06:59:16.697Z,12.20
2019-05-26T06:59:52.354Z,12.25
2019-05-26T07:00:28.518Z,12.28
2019-05-26T07:01:04.862Z,12.50
2019-05-26T07:01:40.666Z,11.48
2019-05-26T07:02:17.806Z,12.98
2019-05-26T07:02:53.917Z,12.10
2019-05-26T07:03:29.768Z,13.48
2019-05-26T07:04:06.729Z,12.28
2019-05-26T07:04:42.901Z,11.70
2019-05-26T07:05:19.326Z,12.58
2019-05-26T07:05:56.426Z,11.90
2019-05-26T07:06:33.573Z,11.50
2019-05-26T07:07:09.576Z,11.70
2019-05-26T07:07:46.772Z,15.55
2019-05-26T07:08:23.450Z,11.60
2019-05-26T07:08:58.843Z,12.43
2019-05-26T07:09:34.974Z,11.33
2019-05-26T07:10:12.033Z,12.05
2019-05-26T07:10:48.134Z,12.03
2019-05-26T07:11:24.327Z,12.93
2019-05-26T07:12:01.410Z,11.43
2019-05-26T07:12:37.034Z,11.03
2019-05-26T07:13:13.061Z,11.05
2019-05-26T07:13:49.300Z,10.55
2019-05-26T07:14:24.830Z,11.80
2019-05-26T07:15:01.454Z,11.43
2019-05-26T07:15:38.581Z,11.35
2019-05-26T07:16:14.650Z,12.88
2019-05-26T07:16:51.023Z,11.35
2019-05-26T07:17:27.073Z,10.35
2019-05-26T07:18:02.515Z,10.55
2019-05-26T07:18:39.144Z,11.20
2019-05-26T07:19:15.229Z,11.07
2019-05-26T07:19:51.095Z,11.38
2019-05-26T07:20:27.723Z,12.07
2019-05-26T07:21:03.766Z,11.97
2019-05-26T07:21:39.332Z,11.28
2019-05-26T07:22:15.399Z,10.63
2019-05-26T07:22:52.060Z,12.15
2019-05-26T07:23:28.468Z,11.25
2019-05-26T07:24:05.027Z,12.23
2019-05-26T07:24:41.058Z,11.05
2019-05-26T07:25:16.936Z,12.63
2019-05-26T07:25:53.056Z,10.78
2019-05-26T07:26:29.101Z,10.65
2019-05-26T07:27:04.668Z,14.73
2019-05-26T07:27:41.115Z,13.45
2019-05-26T07:28:17.236Z,12.70
2019-05-26T07:28:52.751Z,11.73
2019-05-26T07:29:28.796Z,12.23
2019-05-26T07:30:05.477Z,11.78
2019-05-26T07:30:40.959Z,12.25
2019-05-26T07:31:17.068Z,14.65
2019-05-26T07:31:53.914Z,17.52
2019-05-26T07:32:29.722Z,13.70
2019-05-26T07:33:06.683Z,15.35
2019-05-26T07:33:42.801Z,14.45
2019-05-26T07:34:18.742Z,14.43
2019-05-26T07:34:55.497Z,11.85
2019-05-26T07:35:33.189Z,12.70
2019-05-26T07:36:09.593Z,12.47
2019-05-26T07:36:45.636Z,10.82
2019-05-26T07:37:22.319Z,13.70
2019-05-26T07:37:58.389Z,13.98
2019-05-26T07:38:35.044Z,12.98
2019-05-26T07:39:11.588Z,12.18
2019-05-26T07:39:47.142Z,13.35
2019-05-26T07:40:23.272Z,14.05
2019-05-26T07:40:59.971Z,14.25
2019-05-26T07:41:36.671Z,12.43
2019-05-26T07:42:13.670Z,16.55
2019-05-26T07:42:49.825Z,15.00
2019-05-26T07:43:28.038Z,13.55
2019-05-26T07:44:03.691Z,12.30
2019-05-26T07:44:39.917Z,12.30
2019-05-26T07:45:18.109Z,13.70
2019-05-26T07:45:55.254Z,16.10
2019-05-26T07:46:31.319Z,13.18
2019-05-26T07:47:06.801Z,12.93
2019-05-26T07:47:43.727Z,15.58
2019-05-26T07:48:20.449Z,16.23
2019-05-26T07:48:56.369Z,17.95
2019-05-26T07:49:33.123Z,15.58
2019-05-26T07:50:10.155Z,13.93
2019-05-26T07:50:48.730Z,12.90
2019-05-26T07:51:25.522Z,15.68
2019-05-26T07:52:02.252Z,15.55
2019-05-26T07:52:38.320Z,13.58
2019-05-26T07:53:14.658Z,13.45
2019-05-26T07:53:51.414Z,13.48
2019-05-26T07:54:27.884Z,14.25
2019-05-26T07:55:04.376Z,14.00
2019-05-26T07:55:40.433Z,14.55
2019-05-26T07:56:16.381Z,14.80
2019-05-26T07:56:52.829Z,15.18
2019-05-26T07:57:28.898Z,13.62
2019-05-26T07:58:04.976Z,14.33
2019-05-26T07:58:41.893Z,16.55
2019-05-26T07:59:19.387Z,14.60
2019-05-26T07:59:55.471Z,14.93
2019-05-26T08:00:32.171Z,14.90
2019-05-26T08:01:08.256Z,15.93